createdAt,value
2022-09-28T00:02:09.750Z,8.85
2022-09-28T00:04:36.191Z,8.84
2022-09-28T00:07:02.486Z,8.86
2022-09-28T00:09:28.774Z,8.87
2022-09-28T00:11:55.319Z,8.79
2022-09-28T00:14:21.858Z,8.76
2022-09-28T00:16:48.277Z,8.81
2022-09-28T00:19:14.695Z,8.83
2022-09-28T00:21:42.290Z,8.81
2022-09-28T00:24:13.153Z,8.78
2022-09-28T00:26:43.259Z,8.69
2022-09-28T00:29:23.060Z,8.64
2022-09-28T00:31:52.154Z,8.66
2022-09-28T00:34:18.842Z,8.62
2022-09-28T00:36:46.708Z,8.57
2022-09-28T00:39:15.079Z,8.55
2022-09-28T00:41:42.043Z,8.52
2022-09-28T00:44:26.787Z,8.51
2022-09-28T00:47:01.363Z,8.47
2022-09-28T00:49:34.239Z,8.46
2022-09-28T00:52:03.251Z,8.41
2022-09-28T00:54:29.590Z,8.43
2022-09-28T00:56:56.834Z,8.42
2022-09-28T00:59:23.262Z,8.41
2022-09-28T01:01:49.609Z,8.41
2022-09-28T01:04:17.262Z,8.33
2022-09-28T01:06:45.231Z,8.37
2022-09-28T01:09:13.876Z,8.36
2022-09-28T01:11:40.843Z,8.37
2022-09-28T01:14:11.717Z,8.34
2022-09-28T01:16:47.879Z,8.31
2022-09-28T01:19:50.955Z,8.27
2022-09-28T01:22:30.881Z,8.20
2022-09-28T01:25:34.864Z,8.14
2022-09-28T01:28:28.978Z,8.05
2022-09-28T01:31:08.724Z,7.89
2022-09-28T01:33:44.570Z,7.80
2022-09-28T01:36:28.274Z,7.75
2022-09-28T01:39:10.946Z,7.63
2022-09-28T01:41:40.094Z,7.54
2022-09-28T01:44:10.651Z,7.55
2022-09-28T01:46:42.177Z,7.47
2022-09-28T01:49:19.646Z,7.39
2022-09-28T01:51:59.602Z,7.27
2022-09-28T01:54:31.723Z,7.25
2022-09-28T01:57:09.004Z,7.13
2022-09-28T01:59:39.632Z,7.15
2022-09-28T02:02:15.565Z,7.14
2022-09-28T02:04:58.544Z,7.10
2022-09-28T02:07:31.253Z,7.05
2022-09-28T02:10:03.971Z,7.14
2022-09-28T02:12:34.619Z,7.09
2022-09-28T02:15:17.931Z,7.14
2022-09-28T02:17:44.659Z,7.13
2022-09-28T02:20:11.287Z,7.28
2022-09-28T02:22:49.098Z,7.30
2022-09-28T02:25:28.144Z,7.33
2022-09-28T02:28:02.731Z,7.39
2022-09-28T02:30:35.657Z,7.39
2022-09-28T02:33:10.510Z,7.53
2022-09-28T02:35:38.215Z,7.55
2022-09-28T02:38:04.556Z,7.58
2022-09-28T02:40:36.175Z,7.62
2022-09-28T02:43:15.981Z,7.64
2022-09-28T02:46:30.643Z,7.65
2022-09-28T02:49:26.019Z,7.68
2022-09-28T02:52:06.712Z,7.71
2022-09-28T02:54:32.977Z,7.73
2022-09-28T02:57:17.769Z,7.75
2022-09-28T03:00:07.424Z,7.67
2022-09-28T03:02:53.996Z,7.72
2022-09-28T03:05:45.913Z,7.78
2022-09-28T03:08:33.687Z,7.78
2022-09-28T03:11:04.490Z,7.72
2022-09-28T03:13:31.673Z,7.78
2022-09-28T03:16:30.368Z,7.81
2022-09-28T03:18:56.674Z,7.81
2022-09-28T03:21:23.016Z,7.79
2022-09-28T03:23:49.413Z,7.83
2022-09-28T03:26:15.705Z,7.84
2022-09-28T03:28:42.367Z,7.74
2022-09-28T03:31:08.779Z,7.84
2022-09-28T03:33:35.196Z,7.86
2022-09-28T03:36:01.695Z,7.86
2022-09-28T03:38:28.071Z,7.81
2022-09-28T03:40:59.636Z,7.87
2022-09-28T03:43:27.476Z,7.87
2022-09-28T03:45:55.872Z,7.82
2022-09-28T03:48:32.671Z,7.83
2022-09-28T03:51:02.036Z,7.83
2022-09-28T03:53:28.580Z,7.81
2022-09-28T03:55:55.626Z,7.86
2022-09-28T03:58:22.869Z,7.87
2022-09-28T04:00:49.925Z,7.86
2022-09-28T04:03:16.295Z,7.85
2022-09-28T04:05:50.463Z,7.88
2022-09-28T04:08:17.032Z,7.87
2022-09-28T04:10:43.344Z,7.87
2022-09-28T04:13:10.733Z,7.76
2022-09-28T04:15:37.074Z,7.87
2022-09-28T04:18:03.466Z,7.74
2022-09-28T04:20:29.759Z,7.85
2022-09-28T04:22:57.910Z,7.84
2022-09-28T04:25:24.285Z,7.86
2022-09-28T04:27:50.580Z,7.85
2022-09-28T04:30:16.990Z,7.86
2022-09-28T04:32:43.366Z,7.86
2022-09-28T04:35:11.676Z,7.86
2022-09-28T04:37:37.968Z,7.81
2022-09-28T04:40:04.707Z,7.76
2022-09-28T04:42:31.018Z,7.86
2022-09-28T04:44:57.353Z,7.87
2022-09-28T04:47:23.699Z,7.81
2022-09-28T04:49:50.005Z,7.78
2022-09-28T04:52:18.518Z,7.78
2022-09-28T04:54:45.139Z,7.77
2022-09-28T04:57:11.434Z,7.76
2022-09-28T04:59:37.805Z,7.81
2022-09-28T05:02:04.526Z,7.81
2022-09-28T05:04:30.922Z,7.76
2022-09-28T05:06:57.863Z,7.78
2022-09-28T05:09:24.426Z,7.77
2022-09-28T05:11:51.507Z,7.67
2022-09-28T05:14:17.811Z,7.65
2022-09-28T05:16:44.845Z,7.62
2022-09-28T05:19:11.425Z,7.65
2022-09-28T05:21:37.806Z,7.55
2022-09-28T05:24:04.197Z,7.52
2022-09-28T05:26:30.486Z,7.45
2022-09-28T05:28:56.753Z,7.37
2022-09-28T05:31:23.052Z,7.25
2022-09-28T05:33:49.530Z,7.23
2022-09-28T05:36:15.837Z,7.17
2022-09-28T05:38:42.178Z,7.12
2022-09-28T05:41:08.572Z,7.09
2022-09-28T05:43:34.955Z,7.04
2022-09-28T05:46:01.300Z,6.94
2022-09-28T05:48:27.727Z,6.94
2022-09-28T05:50:54.342Z,6.95
2022-09-28T05:53:21.205Z,6.93
2022-09-28T05:55:47.972Z,6.84
2022-09-28T05:58:14.291Z,6.84
2022-09-28T06:00:40.506Z,7.01
2022-09-28T06:03:10.463Z,7.09
2022-09-28T06:05:38.074Z,7.12
2022-09-28T06:08:05.745Z,7.12
2022-09-28T06:10:33.392Z,7.12
2022-09-28T06:13:00.533Z,7.05
2022-09-28T06:15:29.764Z,7.03
2022-09-28T06:18:05.223Z,7.02
2022-09-28T06:20:34.755Z,7.09
2022-09-28T06:23:01.090Z,7.01
2022-09-28T06:25:27.564Z,6.99
2022-09-28T06:28:01.993Z,7.05
2022-09-28T06:30:29.884Z,7.04
2022-09-28T06:32:58.373Z,7.02
2022-09-28T06:35:26.872Z,6.99
2022-09-28T06:37:53.901Z,7.01
2022-09-28T06:40:21.510Z,6.99
2022-09-28T06:43:09.731Z,7.00
2022-09-28T06:45:37.182Z,6.98
2022-09-28T06:48:03.972Z,6.97
2022-09-28T06:50:36.354Z,6.92
2022-09-28T06:53:04.277Z,6.93
2022-09-28T06:55:31.117Z,6.97
2022-09-28T06:58:05.234Z,6.98
2022-09-28T07:00:34.696Z,7.17
2022-09-28T07:03:06.913Z,7.30
2022-09-28T07:05:34.822Z,7.47
2022-09-28T07:08:01.396Z,7.70
2022-09-28T07:10:29.674Z,8.14
2022-09-28T07:12:57.414Z,8.87
2022-09-28T07:15:24.600Z,9.82
2022-09-28T07:18:01.854Z,10.78
2022-09-28T07:20:29.573Z,11.63
2022-09-28T07:23:11.829Z,12.39
2022-09-28T07:25:42.657Z,13.26
2022-09-28T07:28:09.064Z,13.95
2022-09-28T07:30:35.738Z,14.53
2022-09-28T07:33:04.041Z,15.21
2022-09-28T07:35:30.365Z,15.82
2022-09-28T07:38:01.269Z,16.50
2022-09-28T07:40:28.277Z,17.03
2022-09-28T07:42:54.685Z,17.46
2022-09-28T07:45:21.106Z,17.99
2022-09-28T07:47:47.455Z,18.34
2022-09-28T07:50:13.804Z,18.61
2022-09-28T07:52:40.120Z,18.88
2022-09-28T07:55:07.586Z,19.05
2022-09-28T07:57:34.140Z,19.47
2022-09-28T08:00:00.702Z,19.74
2022-09-28T08:02:27.064Z,20.01
2022-09-28T08:04:53.502Z,20.42
2022-09-28T08:07:23.651Z,20.77
2022-09-28T08:09:50.452Z,21.00
2022-09-28T08:12:17.264Z,21.16
2022-09-28T08:14:43.617Z,21.30
2022-09-28T08:17:09.946Z,21.47
2022-09-28T08:19:36.247Z,21.64
2022-09-28T08:22:02.597Z,21.85
2022-09-28T08:24:29.105Z,22.16
2022-09-28T08:26:55.450Z,22.53
2022-09-28T08:29:21.745Z,22.83
2022-09-28T08:31:48.480Z,23.10
2022-09-28T08:34:14.842Z,23.29
2022-09-28T08:36:41.364Z,23.51
2022-09-28T08:39:07.687Z,23.41
2022-09-28T08:41:55.451Z,23.27
2022-09-28T08:44:25.036Z,23.17
2022-09-28T08:46:56.648Z,23.04
2022-09-28T08:49:32.072Z,22.79
2022-09-28T08:52:07.736Z,22.25
2022-09-28T08:54:53.469Z,21.88
2022-09-28T08:57:27.427Z,21.56
2022-09-28T08:59:56.514Z,21.23
2022-09-28T09:02:28.435Z,20.80
2022-09-28T09:04:57.028Z,20.51
2022-09-28T09:07:48.921Z,20.27
2022-09-28T09:10:23.229Z,20.04
2022-09-28T09:13:11.507Z,19.92
2022-09-28T09:15:50.785Z,19.68
2022-09-28T09:18:28.739Z,19.55
2022-09-28T09:21:03.172Z,19.44
2022-09-28T09:23:47.159Z,19.12
2022-09-28T09:26:22.382Z,18.94
2022-09-28T09:29:26.623Z,18.97
2022-09-28T09:32:08.045Z,19.19
2022-09-28T09:34:56.218Z,19.30
2022-09-28T09:37:42.540Z,19.12
2022-09-28T09:40:34.098Z,19.18
2022-09-28T09:43:19.193Z,19.32
2022-09-28T09:46:00.454Z,19.21
2022-09-28T09:48:52.354Z,19.06
2022-09-28T09:51:25.071Z,19.00
2022-09-28T09:53:59.272Z,18.93
2022-09-28T09:56:40.256Z,19.02
2022-09-28T09:59:21.845Z,19.12
2022-09-28T10:01:48.766Z,19.25
2022-09-28T10:04:25.954Z,19.44
2022-09-28T10:06:58.775Z,19.32
2022-09-28T10:09:36.780Z,19.02
2022-09-28T10:12:03.326Z,18.59
2022-09-28T10:14:29.812Z,18.22
2022-09-28T10:16:57.963Z,17.89
2022-09-28T10:19:35.336Z,17.49
2022-09-28T10:22:04.688Z,17.22
2022-09-28T10:24:45.519Z,16.90
2022-09-28T10:27:17.075Z,16.80
2022-09-28T10:29:50.632Z,16.89
2022-09-28T10:32:35.899Z,17.01
2022-09-28T10:35:12.778Z,17.38
2022-09-28T10:38:03.571Z,17.64
2022-09-28T10:40:52.797Z,17.81
2022-09-28T10:43:57.425Z,17.90
2022-09-28T10:46:24.484Z,18.03
2022-09-28T10:49:06.700Z,18.18
2022-09-28T10:51:47.345Z,18.33
2022-09-28T10:54:17.630Z,18.37
2022-09-28T10:56:45.248Z,18.39
2022-09-28T10:59:26.706Z,18.32
2022-09-28T11:02:12.543Z,18.16
2022-09-28T11:04:42.619Z,17.96
2022-09-28T11:07:20.361Z,17.82
2022-09-28T11:09:49.096Z,17.63
2022-09-28T11:12:18.038Z,17.50
2022-09-28T11:14:44.654Z,17.48
2022-09-28T11:17:35.005Z,17.41
2022-09-28T11:20:27.488Z,17.41
2022-09-28T11:22:56.066Z,17.29
2022-09-28T11:25:25.724Z,17.14
2022-09-28T11:27:52.018Z,17.00
2022-09-28T11:30:45.882Z,16.80
2022-09-28T11:33:16.403Z,16.62
2022-09-28T11:36:05.216Z,16.41
2022-09-28T11:38:56.033Z,16.52
2022-09-28T11:41:50.529Z,16.61
2022-09-28T11:44:38.926Z,16.60
2022-09-28T11:47:22.582Z,16.84
2022-09-28T11:50:36.336Z,16.94
2022-09-28T11:53:29.573Z,17.17
2022-09-28T11:56:09.191Z,17.21
2022-09-28T11:58:42.884Z,17.22
2022-09-28T12:01:24.379Z,17.32
2022-09-28T12:03:57.047Z,17.24
2022-09-28T12:06:37.318Z,17.18
2022-09-28T12:09:13.067Z,17.04
2022-09-28T12:11:42.612Z,17.05
2022-09-28T12:14:18.427Z,17.01
2022-09-28T12:17:08.022Z,17.04
2022-09-28T12:20:00.425Z,17.15
2022-09-28T12:22:45.997Z,17.49
2022-09-28T12:25:19.350Z,17.71
2022-09-28T12:27:53.987Z,17.97
2022-09-28T12:30:22.698Z,18.17
2022-09-28T12:33:08.330Z,18.32
2022-09-28T12:35:56.754Z,18.53
2022-09-28T12:39:08.407Z,18.72
2022-09-28T12:41:42.449Z,18.52
2022-09-28T12:44:22.171Z,18.11
2022-09-28T12:47:17.464Z,17.70
2022-09-28T12:53:16.946Z,17.08
2022-09-28T12:55:55.410Z,16.63
2022-09-28T12:58:24.678Z,16.21
2022-09-28T13:01:06.482Z,15.85
2022-09-28T13:03:49.038Z,15.77
2022-09-28T13:06:41.357Z,15.75
2022-09-28T13:09:15.957Z,15.75
2022-09-28T13:11:54.455Z,15.81
2022-09-28T13:14:49.834Z,15.75
2022-09-28T13:17:39.366Z,15.74
2022-09-28T13:20:17.442Z,15.74
2022-09-28T13:23:16.214Z,15.75
2022-09-28T13:25:49.588Z,15.74
2022-09-28T13:28:20.092Z,15.74
2022-09-28T13:30:49.161Z,15.78
2022-09-28T13:33:37.962Z,15.84
2022-09-28T13:36:30.146Z,15.89
2022-09-28T13:38:58.682Z,15.82
2022-09-28T13:41:33.368Z,15.84
2022-09-28T13:44:11.784Z,15.74
2022-09-28T13:46:38.194Z,15.72
2022-09-28T13:49:15.941Z,15.64
2022-09-28T13:51:57.649Z,15.53
2022-09-28T13:54:43.226Z,15.48
2022-09-28T13:57:23.250Z,15.47
2022-09-28T14:00:19.453Z,15.36
2022-09-28T14:02:56.742Z,15.22
2022-09-28T14:05:23.022Z,15.16
2022-09-28T14:08:30.324Z,15.14
2022-09-28T14:11:17.369Z,15.20
2022-09-28T14:13:43.632Z,15.29
2022-09-28T14:16:21.036Z,15.36
2022-09-28T14:18:52.660Z,15.60
2022-09-28T14:21:34.966Z,15.77
2022-09-28T14:24:46.209Z,15.97
2022-09-28T14:27:47.825Z,16.07
2022-09-28T14:30:14.049Z,16.17
2022-09-28T14:32:45.066Z,16.20
2022-09-28T14:35:26.255Z,16.29
2022-09-28T14:37:59.073Z,16.26
2022-09-28T14:40:30.475Z,16.21
2022-09-28T14:43:35.270Z,16.25
2022-09-28T14:46:10.719Z,16.18
2022-09-28T14:48:50.791Z,16.12
2022-09-28T14:51:26.015Z,16.07
2022-09-28T14:54:01.272Z,15.90
2022-09-28T14:56:38.737Z,15.79
2022-09-28T14:59:07.167Z,15.67
2022-09-28T15:01:35.538Z,15.59
2022-09-28T15:04:07.013Z,15.47
2022-09-28T15:06:51.885Z,15.35
2022-09-28T15:09:30.545Z,15.20
2022-09-28T15:12:05.425Z,15.06
2022-09-28T15:14:35.010Z,14.89
2022-09-28T15:17:09.667Z,14.87
2022-09-28T15:20:14.794Z,14.76
2022-09-28T15:22:48.804Z,14.65
2022-09-28T15:25:18.156Z,14.52
2022-09-28T15:27:44.474Z,14.44
2022-09-28T15:30:25.007Z,14.43
2022-09-28T15:32:56.104Z,14.31
2022-09-28T15:35:27.381Z,14.28
2022-09-28T15:37:55.336Z,14.17
2022-09-28T15:40:33.046Z,14.16
2022-09-28T15:42:59.913Z,14.20
2022-09-28T15:45:36.986Z,14.15
2022-09-28T15:48:26.715Z,14.10
2022-09-28T15:51:07.337Z,14.10
2022-09-28T15:53:33.868Z,14.09
2022-09-28T15:56:04.074Z,14.01
2022-09-28T15:58:30.386Z,14.01
2022-09-28T16:01:31.295Z,13.96
2022-09-28T16:03:57.623Z,13.82
2022-09-28T16:06:24.107Z,13.72
2022-09-28T16:08:50.416Z,13.68
2022-09-28T16:11:24.751Z,13.68
2022-09-28T16:13:59.931Z,13.61
2022-09-28T16:16:29.891Z,13.54
2022-09-28T16:18:58.924Z,13.39
2022-09-28T16:21:48.110Z,13.42
2022-09-28T16:24:28.454Z,13.28
2022-09-28T16:27:03.951Z,13.25
2022-09-28T16:29:38.965Z,13.21
2022-09-28T16:32:23.705Z,13.16
2022-09-28T16:35:26.801Z,13.08
2022-09-28T16:37:56.623Z,13.00
2022-09-28T16:40:23.340Z,12.91
2022-09-28T16:42:50.059Z,12.78
2022-09-28T16:45:21.456Z,12.70
2022-09-28T16:47:47.873Z,12.46
2022-09-28T16:50:15.055Z,12.52
2022-09-28T16:52:41.490Z,12.45
2022-09-28T16:55:35.843Z,12.37
2022-09-28T16:57:57.375Z,12.27
2022-09-28T17:00:25.627Z,12.18
2022-09-28T17:02:53.163Z,12.09
2022-09-28T17:05:20.338Z,11.91
2022-09-28T17:07:48.766Z,11.89
2022-09-28T17:10:20.350Z,11.76
2022-09-28T17:12:46.662Z,11.72
2022-09-28T17:15:13.094Z,11.59
2022-09-28T17:17:39.430Z,11.37
2022-09-28T17:20:18.053Z,11.29
2022-09-28T17:22:44.373Z,11.24
2022-09-28T17:25:12.705Z,11.09
2022-09-28T17:27:41.497Z,11.03
2022-09-28T17:30:09.858Z,10.88
2022-09-28T17:32:37.369Z,10.74
2022-09-28T17:35:23.695Z,10.66
2022-09-28T17:37:50.264Z,10.54
2022-09-28T17:40:20.168Z,10.47
2022-09-28T17:42:47.275Z,10.40
2022-09-28T17:45:17.110Z,10.29
2022-09-28T17:47:44.448Z,10.26
2022-09-28T17:50:44.347Z,10.26
2022-09-28T17:53:13.409Z,10.17
2022-09-28T17:55:40.156Z,10.13
2022-09-28T17:58:20.525Z,9.98
2022-09-28T18:00:48.346Z,9.99
2022-09-28T18:03:22.728Z,9.88
2022-09-28T18:05:52.830Z,9.72
2022-09-28T18:08:20.949Z,9.58
2022-09-28T18:10:47.273Z,9.51
2022-09-28T18:13:14.103Z,9.48
2022-09-28T18:15:40.953Z,9.41
2022-09-28T18:18:07.300Z,9.25
2022-09-28T18:20:34.508Z,9.24
2022-09-28T18:23:00.812Z,9.14
2022-09-28T18:25:27.159Z,9.08
2022-09-28T18:27:53.483Z,9.03
2022-09-28T18:30:19.809Z,8.97
2022-09-28T18:32:46.134Z,8.88
2022-09-28T18:35:12.467Z,8.85
2022-09-28T18:37:40.499Z,8.84
2022-09-28T18:40:11.071Z,8.78
2022-09-28T18:42:37.370Z,8.69
2022-09-28T18:45:04.706Z,8.70
2022-09-28T18:47:31.320Z,8.54
2022-09-28T18:49:57.632Z,8.64
2022-09-28T18:52:24.449Z,8.57
2022-09-28T18:54:50.770Z,8.57
2022-09-28T18:57:18.168Z,8.60
2022-09-28T18:59:45.222Z,8.57
2022-09-28T19:02:12.420Z,8.55
2022-09-28T19:04:39.307Z,8.47
2022-09-28T19:07:06.458Z,8.49
2022-09-28T19:09:33.246Z,8.38
2022-09-28T19:11:59.916Z,8.39
2022-09-28T19:14:26.525Z,8.30
2022-09-28T19:16:52.874Z,8.24
2022-09-28T19:19:20.480Z,8.19
2022-09-28T19:21:47.021Z,8.09
2022-09-28T19:24:18.326Z,8.00
2022-09-28T19:26:45.196Z,7.98
2022-09-28T19:29:11.956Z,7.94
2022-09-28T19:31:38.713Z,7.91
2022-09-28T19:34:05.730Z,7.85
2022-09-28T19:36:32.920Z,7.87
2022-09-28T19:39:00.532Z,7.76
2022-09-28T19:41:28.949Z,7.79
2022-09-28T19:43:55.250Z,7.65
2022-09-28T19:46:21.523Z,7.71
2022-09-28T19:48:47.879Z,7.62
2022-09-28T19:51:14.164Z,7.61
2022-09-28T19:53:40.494Z,7.58
2022-09-28T19:56:06.818Z,7.54
2022-09-28T19:58:35.629Z,7.55
2022-09-28T20:01:06.383Z,7.48
2022-09-28T20:03:33.711Z,7.48
2022-09-28T20:06:00.777Z,7.46
2022-09-28T20:08:28.405Z,7.46
2022-09-28T20:10:55.683Z,7.46
2022-09-28T20:13:23.560Z,7.43
2022-09-28T20:15:50.007Z,7.43
2022-09-28T20:18:16.642Z,7.36
2022-09-28T20:20:42.962Z,7.27
2022-09-28T20:23:09.567Z,7.15
2022-09-28T20:25:35.891Z,7.10
2022-09-28T20:28:02.421Z,7.15
2022-09-28T20:30:28.744Z,7.12
2022-09-28T20:32:55.129Z,7.12
2022-09-28T20:35:30.615Z,7.09
2022-09-28T20:37:58.792Z,6.99
2022-09-28T20:40:25.131Z,7.03
2022-09-28T20:42:51.469Z,7.01
2022-09-28T20:45:17.787Z,6.97
2022-09-28T20:47:44.006Z,6.95
2022-09-28T20:50:10.309Z,6.92
2022-09-28T20:52:36.570Z,6.90
2022-09-28T20:55:02.970Z,6.87
2022-09-28T20:57:29.294Z,6.85
2022-09-28T20:59:55.522Z,6.81
2022-09-28T21:02:21.926Z,6.72
2022-09-28T21:04:48.325Z,6.71
2022-09-28T21:07:14.546Z,6.78
2022-09-28T21:09:40.859Z,6.67
2022-09-28T21:12:07.070Z,6.73
2022-09-28T21:14:33.390Z,6.71
2022-09-28T21:16:59.941Z,6.71
2022-09-28T21:19:26.250Z,6.66
2022-09-28T21:21:52.547Z,6.73
2022-09-28T21:24:18.915Z,6.72
2022-09-28T21:26:45.381Z,6.74
2022-09-28T21:29:13.752Z,6.73
2022-09-28T21:31:45.321Z,6.72
2022-09-28T21:34:16.974Z,6.71
2022-09-28T21:36:43.372Z,6.69
2022-09-28T21:39:10.588Z,6.61
2022-09-28T21:41:37.431Z,6.66
2022-09-28T21:44:03.799Z,6.63
2022-09-28T21:46:30.155Z,6.63
2022-09-28T21:48:56.480Z,6.64
2022-09-28T21:51:23.184Z,6.63
2022-09-28T21:53:49.533Z,6.60
2022-09-28T21:56:16.068Z,6.51
2022-09-28T21:58:42.404Z,6.54
2022-09-28T22:01:11.546Z,6.48
2022-09-28T22:03:37.855Z,6.29
2022-09-28T22:06:04.696Z,6.34
2022-09-28T22:08:31.346Z,6.23
2022-09-28T22:10:59.714Z,6.27
2022-09-28T22:13:27.595Z,6.25
2022-09-28T22:15:55.017Z,6.25
2022-09-28T22:18:21.372Z,6.23
2022-09-28T22:20:47.601Z,6.25
2022-09-28T22:23:13.886Z,6.23
2022-09-28T22:25:40.132Z,6.23
2022-09-28T22:28:06.438Z,6.11
2022-09-28T22:30:34.043Z,6.19
2022-09-28T22:33:00.362Z,6.16
2022-09-28T22:35:26.585Z,6.13
2022-09-28T22:37:52.865Z,5.97
2022-09-28T22:40:19.187Z,6.04
2022-09-28T22:42:45.533Z,5.97
2022-09-28T22:45:11.782Z,5.91
2022-09-28T22:47:38.090Z,5.87
2022-09-28T22:50:04.481Z,5.86
2022-09-28T22:52:30.783Z,5.84
2022-09-28T22:54:57.022Z,5.86
2022-09-28T22:57:23.334Z,5.76
2022-09-28T22:59:49.574Z,5.80
2022-09-28T23:02:15.904Z,5.65
2022-09-28T23:04:42.142Z,5.77
2022-09-28T23:07:08.457Z,5.64
2022-09-28T23:09:34.702Z,5.75
2022-09-28T23:12:01.242Z,5.66
2022-09-28T23:14:27.555Z,5.72
2022-09-28T23:16:53.782Z,5.71
2022-09-28T23:19:20.308Z,5.71
2022-09-28T23:21:46.811Z,5.70
2022-09-28T23:24:13.158Z,5.67
2022-09-28T23:26:39.395Z,5.65
2022-09-28T23:29:05.723Z,5.51
2022-09-28T23:31:32.606Z,5.63
2022-09-28T23:34:04.758Z,5.61
2022-09-28T23:36:31.928Z,5.60
2022-09-28T23:38:58.267Z,5.52
2022-09-28T23:41:24.524Z,5.55
2022-09-28T23:43:51.016Z,5.46
2022-09-28T23:46:20.702Z,5.38
2022-09-28T23:48:47.993Z,5.41
2022-09-28T23:51:14.298Z,5.38
2022-09-28T23:53:40.515Z,5.43
2022-09-28T23:56:06.812Z,5.39
2022-09-28T23:58:33.060Z,5.35
